Grimes, IA (50111)

8:45 AM CDT on April 25, 2015 (GMT -0500)
T & T Sprinkler Service Inc. | | Change Station
CLOSE
Current Station
Personal Weather Station
Location: Grimes, IA
Elevation: 955 ft
Nearby Weather Stations

Elev 955 ft 41.67 °N, 93.77 °W | Updated 9 seconds ago

Rain
Rain
43.4 °F
Feels Like 43 °F
N
0.0
Wind Variable Wind from NE
Gusts 0.0 mph

Today
High -- | Low -- °F
--% Chance of Precip.
Yesterday
High -- | Low -- °F
Precip. -- in
6:20 AM 8:06 PM
Waxing Crescent, 46% visible
Pressure 29.61 in
Visibility 3.0 miles
Clouds Overcast 700 ft
Windchill 43 °F
Dew Point 42 °F
Humidity 94%
Rainfall 0.20 in
Snow Depth Not available.
UV 2.3 out of 12
Pollen 10.30 out of 12
Air Quality Not available.
Flu Activity Local Activity
METAR KIKV 251335Z AUTO 06014G20KT 3SM -RA OVC007 06/06 A2961 RMK AO2

More Conditions Fewer Conditions

Pressure 29.61 in
Visibility 3.0 miles
Clouds Overcast 700 ft
Windchill 43 °F
Dew Point 42 °F
Humidity 94%
Rainfall 0.20 in
Snow Depth Not available.
UV 2.3 out of 12
Pollen 10.30 out of 12
Air Quality Not available.
Flu Activity Local Activity
METAR KIKV 251335Z AUTO 06014G20KT 3SM -RA OVC007 06/06 A2961 RMK AO2

More Conditions Fewer Conditions

10-Day Weather Forecast

Almanac

Astronomy

Apr. 25, 2015 Rise Set
Actual Time
Civil Twilight
Nautical Twilight
Astronomical Twilight
Moon
Length of Visible Light
Length of Day
Tomorrow will be .
, % of the Moon is Illuminated

Today's Extremes

State Highs State Lows

Community

WunderPhotos

Upload Photos

1,816,675 photos uploaded!

WunderBlogs® & News

Nearby

Air Quality

  Air Quality AQ Index Pollutant
Not available.

Snow Depth

Station Depth Elevation

Earthquake Activity

City Distance Mag. Time & Date
Minimum magnitude displayed is 2.5.

Coastal Water Temperatures

Place Temperature

Stations

Nearby Weather Stations

Station Location Temp. Windchill Dew Point Humidity Wind Precip. Elev Updated Type